SPCL/PCL METAR and TAF weather

Enter ICAO airport designator
Station Type Date Time Source
SPCL METAR 2019/11/18 12:00 UTC NOAA

SPCL 181200Z VRB02KT 9999 FEW020 25/22 Q1010 RMK TN22.2 BIRD HAZARD RWY 02/20 PP000


Station Type Date Time Source
SPCL Decoded METAR 2019/11/18 12:00 UTC NOAA

Pucallpa, Peru (SPCL) 08-25S 074-36W 149M
Nov 18, 2019 - 07:00 AM EST / 2019.11.18 1200 UTC
Wind: Variable at 2 MPH (2 KT):0
Visibility: greater than 7 mile(s):0
Sky conditions: mostly clear
Temperature: 77 F (25 C)
Dew Point: 71 F (22 C)
Relative Humidity: 83%
Pressure (altimeter): 29.83 in. Hg (1010 hPa)
ob: SPCL 181200Z VRB02KT 9999 FEW020 25/22 Q1010 RMK TN22.2 BIRD HAZARD RWY 02/20 PP000
cycle: 12

Station Type Date Time Source
SPCL TAF 2019/11/18 12:33 UTC NOAA

TAF SPCL 181100Z 1812/1912 VRB02KT 9999 FEW020 TX34/1820Z TN23/1911Z
BECMG 1817/1819 01004KT BKN020
BECMG 1823/1901 00000KT SCT015

Example: see airport list